Time;durP1;ratioP1;P1;durP2;ratioP2;P2;SDS_P1;SDS_P2;PMS_P1;PMS_P2;Temp;Humidity;BMP_temperature;BMP_pressure;BME280_temperature;BME280_humidity;BME280_pressure;Samples;Min_cycle;Max_cycle;Signal;HPM_P1;HPM_P2
2021/03/21 00:00:15;;;;;;;3.58;1.73;;;7.60;80.40;;;;;;4954136;28;20063;-76
2021/03/21 00:02:44;;;;;;;5.07;1.45;;;7.60;80.30;;;;;;4939382;28;20044;-75
2021/03/21 00:05:12;;;;;;;3.20;1.67;;;7.60;80.20;;;;;;4940742;28;20066;-75
2021/03/21 00:07:39;;;;;;;3.55;1.98;;;7.60;80.20;;;;;;4939202;28;20049;-75
2021/03/21 00:10:07;;;;;;;1.95;1.50;;;7.70;80.20;;;;;;4940203;28;20405;-75
2021/03/21 00:12:34;;;;;;;4.28;1.77;;;7.60;80.00;;;;;;4961944;28;20058;-75
2021/03/21 00:15:02;;;;;;;3.17;1.50;;;7.60;79.50;;;;;;4932151;28;20547;-75
2021/03/21 00:17:29;;;;;;;2.38;1.67;;;7.60;79.40;;;;;;4939756;28;20123;-75
2021/03/21 00:19:58;;;;;;;3.47;1.60;;;7.60;79.60;;;;;;4934018;28;20035;-76
2021/03/21 00:22:25;;;;;;;3.17;1.52;;;7.60;79.60;;;;;;4940795;28;20047;-75
2021/03/21 00:24:53;;;;;;;2.55;1.80;;;7.60;79.80;;;;;;4924810;28;20497;-75
2021/03/21 00:27:20;;;;;;;2.50;1.42;;;7.50;79.60;;;;;;4945452;28;20046;-76
2021/03/21 00:29:47;;;;;;;2.45;1.65;;;7.50;79.60;;;;;;4943760;28;20039;-75
2021/03/21 00:32:14;;;;;;;3.00;1.63;;;7.60;79.30;;;;;;4940944;28;20047;-74
2021/03/21 00:34:42;;;;;;;3.20;1.83;;;7.50;79.30;;;;;;4943826;28;20050;-75
2021/03/21 00:37:10;;;;;;;3.80;1.90;;;7.50;79.20;;;;;;4952152;28;20039;-75
2021/03/21 00:39:37;;;;;;;2.47;1.65;;;7.40;79.30;;;;;;4940629;29;20945;-75
2021/03/21 00:42:05;;;;;;;3.53;1.95;;;7.50;79.10;;;;;;4950853;28;20054;-75
2021/03/21 00:44:32;;;;;;;3.97;1.70;;;7.50;79.10;;;;;;4936179;28;20413;-75
2021/03/21 00:46:59;;;;;;;3.03;1.70;;;7.40;79.00;;;;;;4943618;28;20858;-75
2021/03/21 00:49:27;;;;;;;2.90;1.77;;;7.40;79.10;;;;;;4951130;28;20382;-75
2021/03/21 00:51:54;;;;;;;3.30;2.20;;;7.40;79.00;;;;;;4942848;28;20115;-75
2021/03/21 00:54:22;;;;;;;2.60;1.83;;;7.40;79.10;;;;;;4949198;28;20142;-75
2021/03/21 00:56:49;;;;;;;2.47;1.83;;;7.40;79.00;;;;;;4952455;28;20070;-75
2021/03/21 00:59:16;;;;;;;3.05;2.05;;;7.40;78.70;;;;;;4947488;28;20050;-75
2021/03/21 01:01:43;;;;;;;2.83;1.92;;;7.40;78.80;;;;;;4956935;28;20528;-74
2021/03/21 01:04:12;;;;;;;3.50;2.15;;;7.40;78.70;;;;;;4946769;28;20039;-75
2021/03/21 01:06:40;;;;;;;4.07;2.70;;;7.50;78.60;;;;;;4957516;28;20150;-75
2021/03/21 01:09:12;;;;;;;3.90;2.13;;;7.50;78.40;;;;;;4938484;28;20039;-75
2021/03/21 01:11:40;;;;;;;4.72;2.60;;;7.50;78.30;;;;;;4952770;28;20071;-75
2021/03/21 01:14:08;;;;;;;3.53;2.70;;;7.50;78.30;;;;;;4941433;28;20040;-75
2021/03/21 01:16:38;;;;;;;4.07;2.60;;;7.50;78.40;;;;;;4952896;28;20102;-76
2021/03/21 01:19:07;;;;;;;3.78;2.30;;;7.50;78.60;;;;;;4944346;28;20046;-76
2021/03/21 01:21:34;;;;;;;4.28;2.70;;;7.50;78.70;;;;;;4938034;28;20094;-75
2021/03/21 01:24:02;;;;;;;3.30;2.50;;;7.50;78.70;;;;;;4947356;28;20066;-75
2021/03/21 01:26:29;;;;;;;5.63;2.95;;;7.50;78.60;;;;;;4941026;28;20405;-75
2021/03/21 01:28:58;;;;;;;5.03;2.85;;;7.40;78.80;;;;;;4938173;28;20107;-75
2021/03/21 01:31:26;;;;;;;4.90;2.80;;;7.40;79.00;;;;;;4944551;28;20047;-75
2021/03/21 01:33:54;;;;;;;4.85;2.60;;;7.40;79.10;;;;;;4949837;28;20593;-76
2021/03/21 01:36:25;;;;;;;4.32;3.00;;;7.40;79.20;;;;;;4954045;28;20157;-75
2021/03/21 01:38:55;;;;;;;4.22;3.00;;;7.40;79.10;;;;;;4937193;28;20645;-75
2021/03/21 01:41:26;;;;;;;4.95;2.75;;;7.40;79.30;;;;;;4939832;28;20039;-75
2021/03/21 01:43:53;;;;;;;4.65;3.38;;;7.40;79.00;;;;;;4944281;28;20047;-75
2021/03/21 01:46:46;;;;;;;5.90;3.40;;;7.40;79.10;;;;;;4940446;28;20441;-76
2021/03/21 01:49:20;;;;;;;4.63;2.92;;;7.40;78.90;;;;;;4933373;28;20039;-76
2021/03/21 01:51:50;;;;;;;6.70;3.78;;;7.30;79.00;;;;;;4941730;28;20047;-75
2021/03/21 01:54:21;;;;;;;5.00;3.60;;;7.30;78.50;;;;;;4939655;28;20451;-75
2021/03/21 01:56:48;;;;;;;5.18;3.47;;;7.30;78.10;;;;;;4940427;28;20050;-75
2021/03/21 01:59:18;;;;;;;6.15;4.10;;;7.30;78.20;;;;;;4922347;28;20414;-75
2021/03/21 02:01:47;;;;;;;4.78;3.35;;;7.30;77.80;;;;;;4934586;28;20540;-76
2021/03/21 02:04:15;;;;;;;5.00;3.55;;;7.20;77.80;;;;;;4922441;28;20058;-75
2021/03/21 02:06:57;;;;;;;5.50;3.65;;;7.30;77.50;;;;;;4929393;28;20542;-75
2021/03/21 02:09:31;;;;;;;4.35;3.45;;;7.20;77.50;;;;;;4939694;28;20486;-75
2021/03/21 02:12:12;;;;;;;7.93;4.57;;;7.20;77.60;;;;;;4937749;28;20043;-75
2021/03/21 02:14:45;;;;;;;5.75;4.13;;;7.30;77.60;;;;;;4954524;28;20059;-75
2021/03/21 02:17:20;;;;;;;5.68;3.70;;;7.30;77.60;;;;;;4947147;28;20467;-75
2021/03/21 02:20:17;;;;;;;5.28;3.78;;;7.20;77.60;;;;;;4938688;28;20043;-75
2021/03/21 02:22:49;;;;;;;5.80;3.47;;;7.20;77.60;;;;;;4941047;28;20067;-75
2021/03/21 02:25:33;;;;;;;6.35;4.30;;;7.20;77.40;;;;;;4941479;28;20502;-75
2021/03/21 02:28:14;;;;;;;5.53;3.72;;;7.20;77.50;;;;;;4934416;28;20109;-75
2021/03/21 02:30:44;;;;;;;5.28;3.75;;;7.20;77.50;;;;;;4941209;28;20581;-76
2021/03/21 02:33:16;;;;;;;5.70;3.83;;;7.20;77.70;;;;;;4939794;28;20110;-75
2021/03/21 02:35:55;;;;;;;4.40;3.53;;;7.20;77.90;;;;;;4936706;28;20056;-76
2021/03/21 02:38:28;;;;;;;5.05;3.65;;;7.10;77.80;;;;;;4940500;28;20576;-75
2021/03/21 02:41:00;;;;;;;6.38;4.05;;;7.10;77.90;;;;;;4961200;28;20051;-75
2021/03/21 02:43:33;;;;;;;6.93;4.40;;;7.10;77.50;;;;;;4949387;28;20051;-75
2021/03/21 02:46:06;;;;;;;7.07;3.92;;;7.10;77.70;;;;;;4937585;28;20043;-75
2021/03/21 02:48:38;;;;;;;4.00;3.45;;;7.10;77.30;;;;;;4939763;28;20354;-75
2021/03/21 02:51:08;;;;;;;5.75;3.28;;;7.20;77.40;;;;;;4947382;28;20050;-75
2021/03/21 02:53:43;;;;;;;6.32;3.67;;;7.10;77.30;;;;;;4936713;28;20065;-75
2021/03/21 02:56:17;;;;;;;9.18;4.20;;;7.10;77.40;;;;;;4945460;28;20105;-75
2021/03/21 02:59:06;;;;;;;5.03;3.58;;;7.10;77.00;;;;;;4938363;28;20521;-75
2021/03/21 03:01:38;;;;;;;5.95;3.95;;;7.10;77.10;;;;;;4952603;28;20107;-75
2021/03/21 03:04:11;;;;;;;5.57;3.28;;;7.00;77.20;;;;;;4932860;28;20506;-75
2021/03/21 03:06:42;;;;;;;5.25;3.65;;;7.00;77.20;;;;;;4939772;28;20129;-75
2021/03/21 03:09:17;;;;;;;7.72;3.70;;;7.10;77.10;;;;;;4948789;28;20049;-75
2021/03/21 03:11:49;;;;;;;5.95;3.58;;;7.00;77.10;;;;;;4950637;28;20043;-75
2021/03/21 03:14:20;;;;;;;3.78;2.97;;;7.00;77.10;;;;;;4946975;28;20149;-76
2021/03/21 03:16:58;;;;;;;5.32;3.53;;;7.00;77.20;;;;;;4938470;29;20047;-75
2021/03/21 03:19:33;;;;;;;5.28;3.72;;;7.00;77.50;;;;;;4939671;28;20129;-75
2021/03/21 03:22:05;;;;;;;5.28;3.60;;;6.90;77.50;;;;;;4944726;28;20595;-75
2021/03/21 03:24:38;;;;;;;4.82;3.72;;;7.00;77.60;;;;;;4933753;28;20085;-75
2021/03/21 03:27:12;;;;;;;5.65;3.30;;;7.00;77.50;;;;;;4939350;28;20043;-75
2021/03/21 03:29:42;;;;;;;5.35;3.67;;;7.00;77.70;;;;;;4952829;28;20051;-75
2021/03/21 03:32:13;;;;;;;6.30;4.20;;;7.00;77.40;;;;;;4955813;28;20050;-76
2021/03/21 03:34:45;;;;;;;6.28;3.55;;;6.90;77.50;;;;;;4935712;28;20055;-75
2021/03/21 03:37:13;;;;;;;5.22;3.90;;;6.90;77.20;;;;;;4951515;28;20356;-75
2021/03/21 03:39:42;;;;;;;7.07;3.88;;;7.00;77.10;;;;;;4946810;28;20529;-74
2021/03/21 03:42:15;;;;;;;4.45;3.83;;;7.00;77.10;;;;;;4938859;28;20129;-75
2021/03/21 03:44:54;;;;;;;6.15;4.28;;;6.90;77.00;;;;;;4939352;28;20047;-75
2021/03/21 03:47:32;;;;;;;6.75;4.38;;;6.90;77.10;;;;;;4939838;28;20067;-75
2021/03/21 03:50:02;;;;;;;5.47;3.50;;;6.90;77.00;;;;;;4935864;28;20510;-75
2021/03/21 03:52:50;;;;;;;5.63;3.65;;;6.80;77.00;;;;;;4939794;28;20287;-75
2021/03/21 03:55:25;;;;;;;5.43;3.85;;;6.90;77.30;;;;;;4937638;28;20043;-75
2021/03/21 03:57:57;;;;;;;6.30;4.13;;;6.90;77.20;;;;;;4952632;28;20142;-75
2021/03/21 04:00:31;;;;;;;6.55;4.28;;;6.80;77.30;;;;;;4936747;28;20547;-75
2021/03/21 04:03:10;;;;;;;7.40;4.57;;;6.80;77.50;;;;;;4946758;28;20051;-74
2021/03/21 04:05:41;;;;;;;6.55;3.72;;;6.80;77.80;;;;;;4939334;28;20502;-75
2021/03/21 04:08:17;;;;;;;5.68;4.15;;;6.80;77.60;;;;;;4958092;28;20581;-75
2021/03/21 04:10:49;;;;;;;6.43;3.88;;;6.80;77.90;;;;;;4941642;28;20525;-75
2021/03/21 04:13:21;;;;;;;5.13;3.70;;;6.80;78.00;;;;;;4947176;28;20047;-75
2021/03/21 04:15:51;;;;;;;4.95;4.00;;;6.80;77.90;;;;;;4954942;28;20043;-75
2021/03/21 04:18:23;;;;;;;7.05;3.45;;;6.90;78.00;;;;;;4938167;28;20498;-75
2021/03/21 04:20:57;;;;;;;7.00;4.15;;;6.80;78.00;;;;;;4944598;28;20047;-75
2021/03/21 04:23:31;;;;;;;4.65;3.60;;;6.80;78.10;;;;;;4950340;28;20470;-75
2021/03/21 04:26:04;;;;;;;5.80;3.80;;;6.70;78.40;;;;;;4945873;28;20047;-75
2021/03/21 04:28:41;;;;;;;6.90;4.18;;;6.70;78.40;;;;;;4941826;28;20039;-75
2021/03/21 04:31:10;;;;;;;;;;;6.70;78.60;;;;;;4967907;28;20258;-75
2021/03/21 04:33:43;;;;;;;4.95;3.35;;;6.70;78.60;;;;;;4943449;28;19926;-75
2021/03/21 04:36:13;;;;;;;7.60;4.13;;;6.70;78.70;;;;;;4953768;28;20157;-75
2021/03/21 04:38:43;;;;;;;7.05;4.32;;;6.70;78.80;;;;;;4940535;28;20074;-75
2021/03/21 04:41:15;;;;;;;5.22;3.70;;;6.80;78.70;;;;;;4941068;28;20099;-75
2021/03/21 04:43:47;;;;;;;6.82;4.22;;;6.70;78.80;;;;;;4956506;28;20552;-75
2021/03/21 04:46:25;;;;;;;5.20;3.90;;;6.60;79.00;;;;;;4941211;28;20500;-75
2021/03/21 04:48:55;;;;;;;4.70;3.55;;;6.50;79.00;;;;;;4948049;28;20051;-75
2021/03/21 04:51:27;;;;;;;6.15;3.70;;;6.50;79.40;;;;;;4953156;28;20054;-75
2021/03/21 04:53:58;;;;;;;6.43;4.13;;;6.50;79.30;;;;;;4953171;28;20139;-75
2021/03/21 04:56:28;;;;;;;5.45;3.60;;;6.50;79.20;;;;;;4945260;28;20103;-75
2021/03/21 04:58:59;;;;;;;5.15;3.53;;;6.50;79.40;;;;;;4941324;28;20071;-75
2021/03/21 05:01:31;;;;;;;6.35;4.13;;;6.50;79.50;;;;;;4948529;28;20057;-75
2021/03/21 05:04:06;;;;;;;6.25;3.85;;;6.50;79.60;;;;;;4956463;28;20050;-75
2021/03/21 05:06:44;;;;;;;6.18;4.03;;;6.50;79.60;;;;;;4947276;28;20387;-75
2021/03/21 05:09:17;;;;;;;8.80;4.30;;;6.50;79.70;;;;;;4943705;28;20043;-75
2021/03/21 05:11:49;;;;;;;7.53;3.90;;;6.40;79.70;;;;;;4939722;28;20134;-75
2021/03/21 05:14:23;;;;;;;6.55;4.32;;;6.40;79.90;;;;;;4944003;28;20047;-75
2021/03/21 05:17:11;;;;;;;5.78;3.60;;;6.50;79.50;;;;;;4921695;28;20061;-75
2021/03/21 05:19:50;;;;;;;7.10;3.70;;;6.50;79.60;;;;;;4946263;28;20071;-75
2021/03/21 05:22:27;;;;;;;5.43;3.85;;;6.60;79.50;;;;;;4952485;28;20035;-75
2021/03/21 05:24:59;;;;;;;6.38;3.70;;;6.60;79.30;;;;;;4946206;28;20130;-75
2021/03/21 05:27:32;;;;;;;4.60;3.83;;;6.50;79.40;;;;;;4952125;28;20047;-75
2021/03/21 05:30:06;;;;;;;5.07;3.78;;;6.50;79.30;;;;;;4954405;28;20142;-75
2021/03/21 05:32:34;;;;;;;4.70;3.38;;;6.40;79.50;;;;;;4945982;28;20418;-75
2021/03/21 05:35:03;;;;;;;6.00;3.95;;;6.40;79.40;;;;;;4955149;28;20129;-75
2021/03/21 05:37:44;;;;;;;7.03;4.60;;;6.50;79.30;;;;;;4952455;28;20326;-75
2021/03/21 05:40:41;;;;;;;9.10;4.35;;;6.50;79.10;;;;;;4954693;28;20047;-75
2021/03/21 05:43:16;;;;;;;;;;;6.50;79.20;;;;;;4947878;28;20043;-75
2021/03/21 05:46:01;;;;;;;6.60;3.97;;;6.60;79.00;;;;;;4952151;28;20021;-75
2021/03/21 05:48:49;;;;;;;5.13;3.97;;;6.50;79.00;;;;;;4943507;28;20133;-75
2021/03/21 05:51:43;;;;;;;8.20;4.03;;;6.60;79.20;;;;;;4957739;28;20046;-75
2021/03/21 05:54:33;;;;;;;6.63;4.07;;;6.60;79.00;;;;;;4955761;28;20063;-75
2021/03/21 05:57:21;;;;;;;5.03;3.47;;;6.60;78.70;;;;;;4948768;28;20057;-75
2021/03/21 06:00:08;;;;;;;6.22;3.67;;;6.50;78.20;;;;;;4950415;28;20043;-77
2021/03/21 06:02:58;;;;;;;6.72;4.05;;;6.50;78.10;;;;;;4903933;29;20052;-75
2021/03/21 06:05:49;;;;;;;7.90;4.20;;;6.50;77.90;;;;;;4883070;29;20040;-75
2021/03/21 06:08:30;;;;;;;5.45;3.75;;;6.60;77.80;;;;;;4910929;29;20411;-75
2021/03/21 06:11:21;;;;;;;5.50;3.83;;;6.60;77.90;;;;;;4899560;29;20079;-76
2021/03/21 06:14:12;;;;;;;5.75;3.53;;;6.70;77.70;;;;;;4897503;29;20364;-75
2021/03/21 06:16:52;;;;;;;4.68;3.40;;;6.70;77.40;;;;;;4911721;29;20057;-75
2021/03/21 06:19:43;;;;;;;5.20;4.13;;;6.70;77.20;;;;;;4892709;29;20507;-76
2021/03/21 06:22:28;;;;;;;5.72;3.30;;;6.70;77.10;;;;;;4899205;29;20048;-76
2021/03/21 06:25:25;;;;;;;5.78;3.35;;;6.80;77.00;;;;;;4883614;29;20044;-75
2021/03/21 06:28:08;;;;;;;4.40;3.03;;;6.80;77.00;;;;;;4908797;29;20052;-75
2021/03/21 06:30:59;;;;;;;6.28;3.63;;;6.80;76.60;;;;;;4913188;29;20122;-75
2021/03/21 06:33:33;;;;;;;5.25;3.33;;;6.80;76.70;;;;;;4894033;29;20610;-76
2021/03/21 06:36:09;;;;;;;4.45;3.15;;;6.90;77.00;;;;;;4917149;29;20487;-75
2021/03/21 06:39:01;;;;;;;6.17;3.30;;;6.90;76.60;;;;;;4915702;29;20052;-76
2021/03/21 06:41:43;;;;;;;4.82;2.85;;;7.00;76.90;;;;;;4893740;29;20290;-75
2021/03/21 06:44:38;;;;;;;4.15;2.83;;;7.00;76.60;;;;;;4897522;29;20513;-76
2021/03/21 06:47:17;;;;;;;4.40;2.75;;;7.00;76.40;;;;;;4900762;29;20381;-75
2021/03/21 06:49:59;;;;;;;5.05;3.20;;;7.00;76.30;;;;;;4896721;29;20130;-76
2021/03/21 06:52:35;;;;;;;3.83;3.05;;;7.00;75.80;;;;;;4897859;29;20048;-75
2021/03/21 06:55:09;;;;;;;4.93;3.25;;;7.00;75.80;;;;;;4898128;29;20044;-75
2021/03/21 06:58:03;;;;;;;4.50;3.08;;;7.10;76.10;;;;;;4896448;29;20159;-75
2021/03/21 07:00:53;;;;;;;4.60;3.00;;;7.20;76.00;;;;;;4895812;28;20125;-75
2021/03/21 07:03:52;;;;;;;4.72;3.25;;;7.20;75.50;;;;;;4948996;28;20039;-75
2021/03/21 07:06:55;;;;;;;5.55;3.17;;;7.20;75.40;;;;;;4937749;28;20069;-76
2021/03/21 07:09:49;;;;;;;4.00;2.70;;;7.20;75.00;;;;;;4941287;28;20057;-76
2021/03/21 07:12:42;;;;;;;5.22;3.53;;;7.20;74.60;;;;;;4938160;28;20047;-75
2021/03/21 07:15:34;;;;;;;5.85;3.50;;;7.20;75.10;;;;;;4940867;28;20075;-75
2021/03/21 07:18:27;;;;;;;4.13;2.60;;;7.30;74.80;;;;;;4946099;28;20043;-76
2021/03/21 07:21:09;;;;;;;4.75;3.17;;;7.30;74.80;;;;;;4943123;28;20679;-75
2021/03/21 07:24:11;;;;;;;4.28;2.70;;;7.40;75.10;;;;;;4938029;28;20126;-75
2021/03/21 07:27:07;;;;;;;5.05;3.30;;;7.50;75.30;;;;;;4945896;28;20050;-75
2021/03/21 07:29:41;;;;;;;4.28;2.92;;;7.60;75.10;;;;;;4942099;28;20046;-75
2021/03/21 07:32:47;;;;;;;5.70;3.00;;;7.60;74.50;;;;;;4949300;28;20066;-76
2021/03/21 07:35:35;;;;;;;4.60;3.03;;;7.50;74.30;;;;;;4946500;28;20074;-75
2021/03/21 07:38:13;;;;;;;4.60;2.88;;;7.50;74.40;;;;;;4945328;28;20043;-75
2021/03/21 07:40:49;;;;;;;3.63;2.75;;;7.60;73.90;;;;;;4942234;28;20051;-75
2021/03/21 07:43:35;;;;;;;4.65;2.83;;;7.60;73.40;;;;;;4942118;28;20265;-76
2021/03/21 07:46:24;;;;;;;4.00;3.13;;;7.60;74.00;;;;;;4947090;28;20043;-76
2021/03/21 07:49:09;;;;;;;4.10;2.78;;;7.60;73.60;;;;;;4942596;28;20457;-76
2021/03/21 07:51:53;;;;;;;3.45;2.55;;;7.70;73.30;;;;;;4952932;28;20146;-76
2021/03/21 07:54:33;;;;;;;5.28;3.28;;;7.70;73.00;;;;;;4941752;28;20569;-76
2021/03/21 07:57:12;;;;;;;3.53;2.85;;;7.70;72.70;;;;;;4947780;28;20047;-75
2021/03/21 07:59:42;;;;;;;3.95;2.65;;;7.70;73.20;;;;;;4939102;28;20048;-75
2021/03/21 08:02:12;;;;;;;3.90;2.75;;;7.90;73.40;;;;;;4957430;28;20449;-76
2021/03/21 08:04:47;;;;;;;4.60;2.70;;;7.90;72.80;;;;;;4937801;28;20043;-76
2021/03/21 08:07:16;;;;;;;3.75;2.55;;;8.00;73.00;;;;;;4943011;28;20043;-76
2021/03/21 08:09:44;;;;;;;5.15;2.78;;;8.00;71.70;;;;;;4953357;28;20082;-76
2021/03/21 08:12:31;;;;;;;7.25;3.22;;;8.00;71.70;;;;;;4947814;28;20075;-76
2021/03/21 08:15:01;;;;;;;;;;;8.00;71.80;;;;;;4951409;28;20481;-75
2021/03/21 08:17:32;;;;;;;3.75;2.58;;;8.00;71.90;;;;;;4948417;28;19926;-76
2021/03/21 08:20:03;;;;;;;3.58;2.60;;;8.10;72.40;;;;;;4942503;28;20141;-76
2021/03/21 08:22:33;;;;;;;5.13;2.78;;;8.20;71.50;;;;;;4948546;28;20044;-78
2021/03/21 08:25:15;;;;;;;3.65;2.55;;;8.30;70.80;;;;;;4955577;28;20039;-76
2021/03/21 08:27:42;;;;;;;4.95;2.60;;;8.20;70.40;;;;;;4939682;28;20158;-77
2021/03/21 08:30:12;;;;;;;3.95;2.50;;;8.20;70.60;;;;;;4947664;28;20522;-77
2021/03/21 08:32:51;;;;;;;3.47;2.55;;;8.30;70.60;;;;;;4940807;28;20478;-76
2021/03/21 08:35:22;;;;;;;4.93;2.42;;;8.40;70.60;;;;;;4949326;28;20050;-78
2021/03/21 08:37:51;;;;;;;4.30;2.60;;;8.40;70.30;;;;;;4952521;28;20054;-78
2021/03/21 08:40:24;;;;;;;4.75;2.63;;;8.60;70.50;;;;;;4938925;28;20630;-77
2021/03/21 08:42:54;;;;;;;3.58;2.67;;;8.70;70.70;;;;;;4953595;28;20043;-77
2021/03/21 08:45:30;;;;;;;5.63;3.00;;;8.80;69.90;;;;;;4938916;28;20391;-77
2021/03/21 08:48:04;;;;;;;7.50;3.17;;;8.90;70.20;;;;;;4939458;28;20560;-77
2021/03/21 08:50:53;;;;;;;4.97;2.75;;;8.80;69.90;;;;;;4940242;28;20053;-77
2021/03/21 08:53:29;;;;;;;3.65;2.42;;;8.70;68.60;;;;;;4939316;28;20069;-75
2021/03/21 08:56:13;;;;;;;4.55;2.75;;;8.70;68.70;;;;;;4934832;28;20573;-77
2021/03/21 08:58:41;;;;;;;4.00;2.40;;;8.80;68.20;;;;;;4953918;28;20545;-77
2021/03/21 09:01:12;;;;;;;6.28;2.60;;;8.80;67.90;;;;;;4942311;28;20061;-77
2021/03/21 09:03:42;;;;;;;3.65;2.60;;;8.80;67.60;;;;;;4939831;28;20990;-77
2021/03/21 09:06:28;;;;;;;6.28;2.33;;;8.80;67.50;;;;;;4937056;28;20698;-77
2021/03/21 09:09:15;;;;;;;5.88;2.50;;;8.90;67.60;;;;;;4940135;28;20764;-76
2021/03/21 09:11:44;;;;;;;3.85;2.55;;;9.00;67.40;;;;;;4933384;28;20469;-76
2021/03/21 09:14:18;;;;;;;6.07;2.80;;;8.90;67.50;;;;;;4940733;28;20055;-78
2021/03/21 09:17:02;;;;;;;6.50;2.47;;;8.90;67.40;;;;;;4938571;28;20581;-77
2021/03/21 09:19:34;;;;;;;4.85;2.47;;;8.90;67.80;;;;;;4949759;28;20565;-77
2021/03/21 09:22:13;;;;;;;3.97;2.22;;;9.00;67.70;;;;;;4955086;28;20051;-77
2021/03/21 09:24:40;;;;;;;4.57;2.70;;;8.80;66.90;;;;;;4958187;28;20055;-77
2021/03/21 09:27:18;;;;;;;4.68;2.05;;;8.70;66.50;;;;;;4954604;28;20514;-77
2021/03/21 09:29:49;;;;;;;4.80;2.60;;;8.80;66.80;;;;;;4949133;28;20051;-76
2021/03/21 09:32:23;;;;;;;5.00;2.78;;;8.80;66.90;;;;;;4939416;28;20107;-76
2021/03/21 09:35:01;;;;;;;3.13;2.22;;;8.70;66.30;;;;;;4958916;28;20054;-76
2021/03/21 09:37:34;;;;;;;3.85;2.55;;;8.70;66.30;;;;;;4946592;28;20058;-76
2021/03/21 09:40:14;;;;;;;3.38;2.63;;;8.60;67.00;;;;;;4941196;28;20106;-75
2021/03/21 09:42:41;;;;;;;4.22;3.00;;;8.70;67.10;;;;;;4947482;28;20044;-76
2021/03/21 09:45:12;;;;;;;4.05;2.50;;;8.80;67.60;;;;;;4940745;28;20035;-76
2021/03/21 09:47:52;;;;;;;5.15;2.38;;;8.90;66.90;;;;;;4937856;28;20051;-77
2021/03/21 09:50:38;;;;;;;3.80;2.45;;;8.90;66.70;;;;;;4938620;28;20047;-78
2021/03/21 09:53:31;;;;;;;5.15;2.20;;;8.90;66.80;;;;;;4939060;28;20055;-77
2021/03/21 09:56:05;;;;;;;4.88;2.53;;;8.80;66.80;;;;;;4939113;28;20533;-77
2021/03/21 09:58:42;;;;;;;3.88;2.55;;;8.80;66.80;;;;;;4951608;28;20103;-81
2021/03/21 10:01:19;;;;;;;3.95;2.47;;;8.70;66.70;;;;;;4934412;28;20071;-76
2021/03/21 10:03:53;;;;;;;2.90;2.35;;;8.60;66.50;;;;;;4938291;28;20045;-76
2021/03/21 10:06:25;;;;;;;3.42;2.45;;;8.60;66.80;;;;;;4944326;28;20043;-76
2021/03/21 10:09:08;;;;;;;3.55;2.35;;;8.70;66.80;;;;;;4940230;28;20039;-75
2021/03/21 10:11:39;;;;;;;3.63;2.28;;;8.90;67.30;;;;;;4955734;28;20055;-77
2021/03/21 10:14:36;;;;;;;4.97;2.55;;;9.00;67.60;;;;;;4947178;28;20044;-79
2021/03/21 10:17:34;;;;;;;3.70;2.60;;;9.00;66.40;;;;;;4953900;28;20510;-82
2021/03/21 10:20:01;;;;;;;4.95;2.50;;;9.20;66.40;;;;;;4940811;28;20078;-76
2021/03/21 10:22:52;;;;;;;3.67;2.33;;;9.10;66.30;;;;;;4942792;28;20040;-79
2021/03/21 10:25:49;;;;;;;3.05;2.25;;;9.30;65.90;;;;;;4935928;28;20582;-75
2021/03/21 10:28:34;;;;;;;4.18;2.83;;;9.40;65.20;;;;;;4933372;28;20814;-76
2021/03/21 10:31:31;;;;;;;3.20;2.65;;;9.40;64.90;;;;;;4931683;29;20063;-75
2021/03/21 10:34:28;;;;;;;3.72;2.47;;;9.40;65.10;;;;;;4936452;28;20050;-79
2021/03/21 10:36:55;;;;;;;4.47;2.95;;;9.20;65.00;;;;;;4954381;28;20054;-76
2021/03/21 10:39:52;;;;;;;3.65;2.30;;;9.10;65.30;;;;;;4937709;28;20584;-76
2021/03/21 10:42:43;;;;;;;4.03;2.40;;;9.00;65.70;;;;;;4941354;28;20094;-76
2021/03/21 10:45:15;;;;;;;4.53;2.75;;;9.00;65.50;;;;;;4924843;28;20125;-77
2021/03/21 10:47:48;;;;;;;6.00;2.38;;;8.90;65.80;;;;;;4937208;28;20043;-80
2021/03/21 10:50:38;;;;;;;4.90;2.25;;;8.90;66.70;;;;;;4941004;28;20117;-89
2021/03/21 10:53:18;;;;;;;4.75;2.38;;;8.80;66.00;;;;;;4953583;28;20134;-77
2021/03/21 10:56:03;;;;;;;5.18;2.72;;;8.90;66.10;;;;;;4951597;28;20113;-80
2021/03/21 10:58:41;;;;;;;3.88;2.30;;;9.00;66.40;;;;;;4937813;28;20497;-77
2021/03/21 11:01:26;;;;;;;3.97;2.42;;;9.40;66.50;;;;;;4939757;28;20051;-78
2021/03/21 11:04:03;;;;;;;3.97;2.40;;;9.60;65.60;;;;;;4941968;28;20047;-77
2021/03/21 11:06:34;;;;;;;7.10;2.70;;;9.50;65.90;;;;;;4954546;28;20044;-76
2021/03/21 11:09:09;;;;;;;4.90;2.50;;;9.40;66.00;;;;;;4940768;28;20043;-81
2021/03/21 11:11:39;;;;;;;3.90;2.50;;;9.40;66.00;;;;;;4944265;28;20150;-81
2021/03/21 11:14:18;;;;;;;6.05;2.75;;;9.60;65.60;;;;;;4950648;28;20099;-82
2021/03/21 11:16:52;;;;;;;3.33;2.28;;;9.70;65.30;;;;;;4940931;28;20075;-81
2021/03/21 11:19:41;;;;;;;3.95;2.88;;;9.60;65.50;;;;;;4948365;28;20077;-79
2021/03/21 11:22:18;;;;;;;5.22;2.47;;;9.90;65.50;;;;;;4936167;28;20074;-76
2021/03/21 11:24:46;;;;;;;8.50;3.42;;;10.10;64.20;;;;;;4937882;28;20424;-76
2021/03/21 11:27:24;;;;;;;3.17;2.60;;;10.10;63.60;;;;;;4934799;28;20584;-78
2021/03/21 11:29:52;;;;;;;3.78;2.78;;;10.30;63.80;;;;;;4930735;28;20105;-87
2021/03/21 11:32:25;;;;;;;5.18;3.17;;;10.60;63.60;;;;;;4958903;28;20458;-81
2021/03/21 11:35:02;;;;;;;4.20;2.70;;;10.90;62.70;;;;;;4941877;28;20050;-80
2021/03/21 11:37:37;;;;;;;2.75;2.13;;;11.20;62.90;;;;;;4958579;28;20047;-83
2021/03/21 11:40:14;;;;;;;3.38;2.45;;;11.20;61.90;;;;;;4948919;28;20078;-80
2021/03/21 11:42:43;;;;;;;2.50;2.20;;;11.40;61.80;;;;;;4939099;28;20418;-83
2021/03/21 11:45:20;;;;;;;5.32;2.80;;;11.50;61.40;;;;;;4942540;28;20390;-80
2021/03/21 11:47:50;;;;;;;5.30;3.30;;;11.60;60.70;;;;;;4935937;28;20039;-80
2021/03/21 11:50:21;;;;;;;3.53;2.70;;;11.70;60.50;;;;;;4951995;28;20414;-84
2021/03/21 11:52:50;;;;;;;11.88;4.35;;;11.60;60.50;;;;;;4942491;28;20403;-78
2021/03/21 11:55:19;;;;;;;4.93;3.10;;;11.70;61.20;;;;;;4937103;28;20128;-78
2021/03/21 11:58:00;;;;;;;2.97;2.17;;;11.80;61.70;;;;;;4940379;28;20062;-81
2021/03/21 12:00:31;;;;;;;3.90;2.60;;;12.00;61.40;;;;;;4942518;28;20089;-78
2021/03/21 12:03:06;;;;;;;3.05;2.30;;;12.20;60.90;;;;;;4947502;28;20040;-81
2021/03/21 12:05:37;;;;;;;5.10;2.50;;;12.20;60.50;;;;;;4937326;28;20556;-74
2021/03/21 12:08:19;;;;;;;3.30;2.25;;;12.40;61.70;;;;;;4935912;29;20512;-79
2021/03/21 12:10:47;;;;;;;2.35;2.00;;;12.60;61.70;;;;;;4946183;28;20058;-79
2021/03/21 12:13:32;;;;;;;5.30;2.70;;;12.80;59.90;;;;;;4952250;28;20043;-76
2021/03/21 12:16:02;;;;;;;2.90;2.30;;;12.70;59.70;;;;;;4938089;28;20525;-79
2021/03/21 12:18:32;;;;;;;3.22;2.35;;;12.50;59.70;;;;;;4937780;28;20048;-78
2021/03/21 12:21:12;;;;;;;3.05;2.10;;;12.60;59.30;;;;;;4952344;28;20040;-78
2021/03/21 12:23:43;;;;;;;2.97;2.17;;;12.70;59.50;;;;;;4947873;28;20409;-75
2021/03/21 12:26:18;;;;;;;3.97;2.42;;;12.40;58.40;;;;;;4940761;28;20130;-77
2021/03/21 12:28:53;;;;;;;3.38;2.42;;;12.40;59.60;;;;;;4948947;28;20051;-75
2021/03/21 12:31:27;;;;;;;2.85;2.10;;;12.40;59.30;;;;;;4950788;28;20050;-74
2021/03/21 12:33:55;;;;;;;3.53;2.10;;;12.50;58.90;;;;;;4953709;28;20415;-76
2021/03/21 12:36:31;;;;;;;2.58;2.30;;;12.60;59.10;;;;;;4944543;28;20054;-78
2021/03/21 12:39:26;;;;;;;4.18;2.97;;;12.60;58.60;;;;;;4935827;28;20051;-77
2021/03/21 12:41:54;;;;;;;4.35;2.70;;;12.50;58.50;;;;;;4951823;28;20924;-79
2021/03/21 12:44:26;;;;;;;3.55;2.45;;;12.70;58.70;;;;;;4940286;28;20040;-79
2021/03/21 12:46:58;;;;;;;3.95;2.45;;;12.80;58.50;;;;;;4943673;28;20149;-77
2021/03/21 12:49:36;;;;;;;2.92;2.03;;;12.90;59.00;;;;;;4941686;28;20463;-79
2021/03/21 12:52:06;;;;;;;3.58;2.08;;;13.00;58.30;;;;;;4936174;28;20047;-81
2021/03/21 12:54:33;;;;;;;2.88;2.10;;;12.90;56.90;;;;;;4956471;28;20049;-77
2021/03/21 12:57:04;;;;;;;7.28;2.70;;;13.10;57.20;;;;;;4941693;28;20042;-77
2021/03/21 12:59:43;;;;;;;5.45;2.53;;;13.20;57.70;;;;;;4947146;28;20062;-78
2021/03/21 13:02:30;;;;;;;3.50;2.33;;;13.30;58.50;;;;;;4941102;28;20047;-79
2021/03/21 13:05:16;;;;;;;4.13;2.40;;;13.30;59.00;;;;;;4936062;28;20039;-83
2021/03/21 13:07:43;;;;;;;4.63;2.47;;;13.40;58.60;;;;;;4938852;28;20582;-79
2021/03/21 13:10:11;;;;;;;3.95;1.95;;;13.50;57.70;;;;;;4939238;28;20039;-82
2021/03/21 13:12:39;;;;;;;2.97;2.17;;;13.60;57.20;;;;;;4923336;28;20047;-78
2021/03/21 13:15:09;;;;;;;3.80;2.10;;;13.70;57.30;;;;;;4946544;28;20046;-78
2021/03/21 13:17:37;;;;;;;5.50;2.40;;;13.70;56.50;;;;;;4939882;28;20058;-78
2021/03/21 13:20:09;;;;;;;4.57;2.53;;;13.80;56.40;;;;;;4918925;28;20049;-79
2021/03/21 13:22:36;;;;;;;5.90;3.33;;;13.90;56.30;;;;;;4935114;28;20051;-79
2021/03/21 13:25:06;;;;;;;3.35;2.85;;;13.90;55.70;;;;;;4946580;28;20397;-78
2021/03/21 13:27:33;;;;;;;4.15;2.35;;;13.90;55.70;;;;;;4932985;28;20046;-78
2021/03/21 13:30:01;;;;;;;3.85;1.80;;;13.80;54.90;;;;;;4937006;28;20066;-78
2021/03/21 13:32:28;;;;;;;3.92;2.40;;;13.80;54.70;;;;;;4934522;28;20055;-77
2021/03/21 13:34:56;;;;;;;2.55;1.85;;;13.70;54.60;;;;;;4934537;28;20200;-77
2021/03/21 13:37:24;;;;;;;2.42;2.03;;;13.70;54.90;;;;;;4940329;28;20051;-77
2021/03/21 13:39:52;;;;;;;4.13;2.50;;;13.80;55.10;;;;;;4937021;28;20118;-77